createdAt,value
2023-04-08T00:01:57.543Z,3.25
2023-04-08T00:04:24.364Z,2.35
2023-04-08T00:06:51.195Z,2.28
2023-04-08T00:09:17.846Z,2.65
2023-04-08T00:11:44.358Z,2.22
2023-04-08T00:14:10.976Z,2.25
2023-04-08T00:16:37.552Z,1.83
2023-04-08T00:19:04.293Z,1.73
2023-04-08T00:21:31.774Z,2.10
2023-04-08T00:24:01.591Z,2.20
2023-04-08T00:26:28.126Z,1.50
2023-04-08T00:28:55.040Z,1.30
2023-04-08T00:31:22.060Z,2.67
2023-04-08T00:33:49.125Z,1.13
2023-04-08T00:36:15.635Z,1.92
2023-04-08T00:38:42.103Z,2.63
2023-04-08T00:41:11.462Z,3.42
2023-04-08T00:43:37.884Z,2.05
2023-04-08T00:46:05.006Z,3.30
2023-04-08T00:48:32.126Z,1.05
2023-04-08T00:50:59.085Z,1.48
2023-04-08T00:53:26.009Z,1.77
2023-04-08T00:55:52.634Z,2.72
2023-04-08T00:58:21.544Z,1.92
2023-04-08T01:00:54.513Z,3.33
2023-04-08T01:03:29.968Z,3.45
2023-04-08T01:06:10.967Z,2.75
2023-04-08T01:08:38.758Z,2.92
2023-04-08T01:11:11.033Z,1.70
2023-04-08T01:13:39.027Z,2.47
2023-04-08T01:16:06.225Z,2.00
2023-04-08T01:18:33.294Z,0.93
2023-04-08T01:21:00.337Z,1.60
2023-04-08T01:23:35.948Z,2.05
2023-04-08T01:26:02.586Z,2.10
2023-04-08T01:28:29.900Z,1.42
2023-04-08T01:30:57.393Z,1.52
2023-04-08T01:33:24.248Z,2.63
2023-04-08T01:35:54.099Z,1.85
2023-04-08T01:38:23.312Z,2.47
2023-04-08T01:40:50.451Z,2.42
2023-04-08T01:43:17.955Z,2.90
2023-04-08T01:45:47.411Z,1.15
2023-04-08T01:48:14.850Z,1.35
2023-04-08T01:50:44.903Z,1.40
2023-04-08T01:53:12.232Z,1.37
2023-04-08T01:55:42.085Z,1.33
2023-04-08T01:58:09.514Z,1.83
2023-04-08T02:00:36.840Z,1.88
2023-04-08T02:03:05.836Z,2.17
2023-04-08T02:05:32.508Z,2.45
2023-04-08T02:07:59.011Z,3.47
2023-04-08T02:10:25.549Z,2.30
2023-04-08T02:12:55.422Z,2.75
2023-04-08T02:15:22.053Z,2.78
2023-04-08T02:17:51.106Z,2.85
2023-04-08T02:20:26.376Z,2.97
2023-04-08T02:23:10.951Z,3.03
2023-04-08T02:25:38.722Z,2.80
2023-04-08T02:28:06.889Z,4.13
2023-04-08T02:30:34.470Z,2.20
2023-04-08T02:33:01.611Z,1.55
2023-04-08T02:35:28.441Z,2.95
2023-04-08T02:37:55.000Z,2.22
2023-04-08T02:40:28.734Z,2.10
2023-04-08T02:42:55.614Z,4.90
2023-04-08T02:45:22.483Z,2.40
2023-04-08T02:47:48.929Z,2.10
2023-04-08T02:50:15.620Z,3.25
2023-04-08T02:52:43.838Z,2.70
2023-04-08T02:55:10.761Z,2.25
2023-04-08T02:57:38.081Z,2.00
2023-04-08T03:00:05.478Z,2.88
2023-04-08T03:02:32.108Z,1.92
2023-04-08T03:04:58.745Z,3.72
2023-04-08T03:07:25.404Z,2.38
2023-04-08T03:09:51.891Z,2.13
2023-04-08T03:12:18.403Z,1.92
2023-04-08T03:14:44.816Z,2.70
2023-04-08T03:17:11.216Z,4.38
2023-04-08T03:19:37.682Z,2.30
2023-04-08T03:22:04.100Z,2.28
2023-04-08T03:24:32.369Z,2.40
2023-04-08T03:26:58.826Z,1.98
2023-04-08T03:29:25.426Z,2.28
2023-04-08T03:31:52.217Z,3.85
2023-04-08T03:34:18.695Z,2.15
2023-04-08T03:36:45.298Z,1.92
2023-04-08T03:39:11.876Z,2.75
2023-04-08T03:41:38.383Z,5.53
2023-04-08T03:44:04.882Z,2.33
2023-04-08T03:46:31.425Z,2.78
2023-04-08T03:48:57.874Z,2.70
2023-04-08T03:51:24.285Z,2.60
2023-04-08T03:53:50.688Z,2.75
2023-04-08T03:56:17.145Z,3.47
2023-04-08T03:58:43.790Z,3.28
2023-04-08T04:01:10.334Z,2.22
2023-04-08T04:03:37.075Z,2.35
2023-04-08T04:06:05.864Z,2.47
2023-04-08T04:08:32.527Z,1.92
2023-04-08T04:10:59.308Z,2.92
2023-04-08T04:13:25.958Z,2.10
2023-04-08T04:15:52.487Z,3.47
2023-04-08T04:18:18.957Z,3.00
2023-04-08T04:20:45.519Z,2.42
2023-04-08T04:23:11.958Z,4.60
2023-04-08T04:25:41.162Z,2.08
2023-04-08T04:28:09.053Z,1.55
2023-04-08T04:30:38.946Z,1.75
2023-04-08T04:33:05.650Z,1.52
2023-04-08T04:35:32.492Z,3.33
2023-04-08T04:37:59.088Z,3.20
2023-04-08T04:40:28.754Z,2.63
2023-04-08T04:42:55.645Z,2.80
2023-04-08T04:45:22.106Z,1.85
2023-04-08T04:47:48.561Z,2.30
2023-04-08T04:50:15.004Z,2.25
2023-04-08T04:52:41.711Z,3.47
2023-04-08T04:55:08.357Z,2.20
2023-04-08T04:57:37.199Z,2.72
2023-04-08T05:00:05.467Z,2.40
2023-04-08T05:02:32.545Z,4.75
2023-04-08T05:04:59.258Z,2.42
2023-04-08T05:07:26.022Z,1.95
2023-04-08T05:09:52.473Z,1.88
2023-04-08T05:12:20.747Z,3.08
2023-04-08T05:14:50.416Z,1.83
2023-04-08T05:17:16.876Z,1.60
2023-04-08T05:19:43.408Z,2.78
2023-04-08T05:22:10.058Z,2.78
2023-04-08T05:24:36.551Z,1.88
2023-04-08T05:27:03.083Z,2.22
2023-04-08T05:29:29.607Z,3.53
2023-04-08T05:31:58.854Z,1.58
2023-04-08T05:34:25.414Z,3.08
2023-04-08T05:36:54.992Z,2.22
2023-04-08T05:39:21.571Z,5.63
2023-04-08T05:41:48.179Z,2.22
2023-04-08T05:44:14.769Z,3.58
2023-04-08T05:46:41.266Z,3.10
2023-04-08T05:49:09.846Z,3.03
2023-04-08T05:51:36.423Z,3.10
2023-04-08T05:54:02.895Z,2.00
2023-04-08T05:56:29.405Z,2.50
2023-04-08T05:58:57.331Z,2.90
2023-04-08T06:01:25.974Z,4.90
2023-04-08T06:03:58.559Z,2.88
2023-04-08T06:06:28.461Z,3.17
2023-04-08T06:08:54.970Z,3.40
2023-04-08T06:11:21.482Z,3.00
2023-04-08T06:13:48.136Z,2.75
2023-04-08T06:16:16.218Z,1.85
2023-04-08T06:18:43.709Z,2.40
2023-04-08T06:21:10.816Z,2.25
2023-04-08T06:23:37.557Z,2.17
2023-04-08T06:26:05.190Z,1.92
2023-04-08T06:28:32.240Z,1.92
2023-04-08T06:30:59.047Z,3.28
2023-04-08T06:33:25.624Z,3.10
2023-04-08T06:35:52.197Z,1.80
2023-04-08T06:38:18.690Z,4.25
2023-04-08T06:40:45.589Z,2.03
2023-04-08T06:43:12.045Z,2.60
2023-04-08T06:45:38.562Z,2.35
2023-04-08T06:48:06.837Z,2.45
2023-04-08T06:50:33.366Z,4.63
2023-04-08T06:53:01.419Z,1.70
2023-04-08T06:55:27.880Z,4.82
2023-04-08T06:57:54.456Z,2.10
2023-04-08T07:00:21.232Z,4.88
2023-04-08T07:02:47.778Z,3.42
2023-04-08T07:05:14.376Z,3.05
2023-04-08T07:07:40.908Z,2.00
2023-04-08T07:10:10.336Z,2.10
2023-04-08T07:12:37.501Z,1.98
2023-04-08T07:15:04.120Z,1.85
2023-04-08T07:17:30.725Z,2.33
2023-04-08T07:19:57.749Z,1.98
2023-04-08T07:22:24.241Z,3.05
2023-04-08T07:24:50.752Z,2.40
2023-04-08T07:27:17.436Z,1.95
2023-04-08T07:29:43.980Z,7.07
2023-04-08T07:32:12.638Z,2.47
2023-04-08T07:34:39.215Z,1.48
2023-04-08T07:37:05.782Z,2.67
2023-04-08T07:39:32.232Z,2.25
2023-04-08T07:41:58.779Z,3.67
2023-04-08T07:44:25.334Z,2.22
2023-04-08T07:46:52.053Z,2.45
2023-04-08T07:49:18.895Z,3.53
2023-04-08T07:51:45.469Z,2.08
2023-04-08T07:54:17.547Z,2.60
2023-04-08T07:56:44.863Z,2.00
2023-04-08T07:59:12.240Z,3.05
2023-04-08T08:01:41.063Z,2.67
2023-04-08T08:04:07.811Z,4.05
2023-04-08T08:06:37.673Z,3.53
2023-04-08T08:09:04.384Z,3.35
2023-04-08T08:11:31.273Z,3.13
2023-04-08T08:13:57.680Z,3.83
2023-04-08T08:16:27.349Z,2.88
2023-04-08T08:18:54.002Z,2.72
2023-04-08T08:21:20.659Z,4.25
2023-04-08T08:23:47.372Z,3.05
2023-04-08T08:26:13.840Z,4.95
2023-04-08T08:28:40.356Z,3.92
2023-04-08T08:31:06.971Z,4.03
2023-04-08T08:33:33.796Z,3.58
2023-04-08T08:36:00.470Z,5.50
2023-04-08T08:38:27.409Z,3.78
2023-04-08T08:40:56.824Z,5.38
2023-04-08T08:43:23.946Z,4.53
2023-04-08T08:45:50.528Z,3.15
2023-04-08T08:48:17.690Z,6.55
2023-04-08T08:50:44.204Z,4.10
2023-04-08T08:53:12.047Z,3.30
2023-04-08T08:56:09.348Z,4.68
2023-04-08T08:58:27.830Z,3.30
2023-04-08T09:00:54.665Z,5.03
2023-04-08T09:03:21.764Z,3.03
2023-04-08T09:05:56.879Z,3.53
2023-04-08T09:08:27.456Z,4.18
2023-04-08T09:10:54.686Z,4.35
2023-04-08T09:13:22.269Z,5.32
2023-04-08T09:16:05.273Z,2.95
2023-04-08T09:23:49.154Z,2.97
2023-04-08T09:26:16.808Z,3.40
2023-04-08T09:28:44.145Z,4.93
2023-04-08T09:31:21.272Z,3.55
2023-04-08T09:33:48.944Z,2.92
2023-04-08T09:36:16.215Z,4.50
2023-04-08T09:38:43.522Z,3.50
2023-04-08T09:41:13.243Z,3.45
2023-04-08T09:43:42.472Z,4.97
2023-04-08T09:46:12.214Z,2.83
2023-04-08T09:48:46.799Z,3.20
2023-04-08T09:51:15.856Z,4.07
2023-04-08T09:53:46.472Z,5.88
2023-04-08T09:56:14.005Z,4.13
2023-04-08T09:58:52.739Z,6.65
2023-04-08T10:01:22.431Z,5.30
2023-04-08T10:03:52.783Z,5.97
2023-04-08T10:06:21.770Z,4.18
2023-04-08T10:08:48.356Z,3.05
2023-04-08T10:11:15.506Z,3.63
2023-04-08T10:13:42.594Z,3.97
2023-04-08T10:16:22.288Z,4.75
2023-04-08T10:18:55.212Z,8.27
2023-04-08T10:21:34.791Z,4.07
2023-04-08T10:24:06.368Z,12.90
2023-04-08T10:26:34.567Z,4.85
2023-04-08T10:29:19.465Z,8.85
2023-04-08T10:31:47.017Z,5.22
2023-04-08T10:34:20.518Z,4.63
2023-04-08T10:36:47.621Z,5.75
2023-04-08T10:39:14.745Z,5.18
2023-04-08T10:41:44.797Z,3.95
2023-04-08T10:44:24.476Z,4.17
2023-04-08T10:46:54.206Z,3.45
2023-04-08T10:49:22.164Z,3.90
2023-04-08T10:51:49.355Z,4.57
2023-04-08T10:54:17.050Z,8.07
2023-04-08T10:56:44.393Z,5.13
2023-04-08T10:59:11.088Z,5.35
2023-04-08T11:01:41.380Z,3.60
2023-04-08T11:04:12.145Z,5.00
2023-04-08T11:06:38.946Z,5.55
2023-04-08T11:09:05.429Z,4.38
2023-04-08T11:11:32.104Z,4.95
2023-04-08T11:13:58.854Z,4.35
2023-04-08T11:16:28.092Z,4.32
2023-04-08T11:18:55.642Z,8.18
2023-04-08T11:21:29.708Z,6.00
2023-04-08T11:23:56.396Z,6.93
2023-04-08T11:26:25.258Z,4.65
2023-04-08T11:28:52.515Z,7.18
2023-04-08T11:31:20.663Z,7.35
2023-04-08T11:33:50.249Z,4.90
2023-04-08T11:36:21.685Z,6.28
2023-04-08T11:38:48.166Z,4.90
2023-04-08T11:41:14.796Z,7.68
2023-04-08T11:43:51.236Z,4.70
2023-04-08T11:46:17.870Z,4.22
2023-04-08T11:48:57.298Z,7.63
2023-04-08T11:51:27.910Z,3.10
2023-04-08T11:56:26.736Z,4.82
2023-04-08T12:01:23.066Z,5.45
2023-04-08T12:03:56.760Z,5.95
2023-04-08T12:06:23.786Z,4.38
2023-04-08T12:08:50.605Z,5.35
2023-04-08T12:11:19.888Z,6.00
2023-04-08T12:16:17.128Z,4.90
2023-04-08T12:18:43.829Z,4.38
2023-04-08T12:21:10.514Z,6.47
2023-04-08T12:23:36.942Z,5.00
2023-04-08T12:26:04.432Z,3.92
2023-04-08T12:28:37.085Z,7.13
2023-04-08T12:31:06.793Z,6.97
2023-04-08T12:33:33.541Z,7.38
2023-04-08T12:36:00.127Z,5.57
2023-04-08T12:38:27.200Z,4.13
2023-04-08T12:40:55.345Z,4.32
2023-04-08T12:43:23.585Z,6.38
2023-04-08T12:45:50.380Z,5.30
2023-04-08T12:48:18.089Z,7.00
2023-04-08T12:50:44.843Z,7.88
2023-04-08T12:53:11.329Z,5.95
2023-04-08T12:55:38.020Z,5.68
2023-04-08T12:58:08.553Z,7.75
2023-04-08T13:00:37.983Z,8.88
2023-04-08T13:03:05.130Z,5.50
2023-04-08T13:05:42.812Z,4.78
2023-04-08T13:08:12.386Z,6.60
2023-04-08T13:10:38.891Z,4.75
2023-04-08T13:13:05.369Z,4.03
2023-04-08T13:15:31.811Z,3.40
2023-04-08T13:17:58.239Z,5.93
2023-04-08T13:20:26.080Z,4.03
2023-04-08T13:22:55.361Z,5.22
2023-04-08T13:25:21.881Z,6.82
2023-04-08T13:27:48.310Z,4.65
2023-04-08T13:30:14.749Z,4.80
2023-04-08T13:32:41.202Z,6.60
2023-04-08T13:35:07.878Z,4.55
2023-04-08T13:37:34.311Z,5.68
2023-04-08T13:40:00.682Z,4.55
2023-04-08T13:42:27.099Z,5.07
2023-04-08T13:44:53.507Z,4.72
2023-04-08T13:47:19.889Z,7.50
2023-04-08T13:49:46.383Z,4.70
2023-04-08T13:52:12.784Z,7.88
2023-04-08T13:54:39.279Z,5.95
2023-04-08T13:57:05.681Z,4.00
2023-04-08T13:59:32.239Z,4.07
2023-04-08T14:01:58.802Z,5.82
2023-04-08T14:04:29.608Z,3.03
2023-04-08T14:06:58.101Z,4.07
2023-04-08T14:09:24.564Z,4.38
2023-04-08T14:11:51.047Z,4.35
2023-04-08T14:14:17.505Z,2.88
2023-04-08T14:16:43.950Z,2.50
2023-04-08T14:19:10.612Z,3.10
2023-04-08T14:21:40.435Z,3.15
2023-04-08T14:24:06.982Z,3.60
2023-04-08T14:26:35.960Z,2.83
2023-04-08T14:29:03.553Z,2.67
2023-04-08T14:31:30.080Z,2.60
2023-04-08T14:33:56.484Z,4.05
2023-04-08T14:36:24.284Z,2.90
2023-04-08T14:38:51.183Z,3.58
2023-04-08T14:41:17.816Z,4.38
2023-04-08T14:43:44.361Z,2.75
2023-04-08T14:46:11.046Z,3.35
2023-04-08T14:48:37.528Z,3.38
2023-04-08T14:51:05.974Z,6.03
2023-04-08T14:53:33.444Z,6.43
2023-04-08T14:56:00.163Z,2.85
2023-04-08T14:58:26.528Z,2.10
2023-04-08T15:00:53.047Z,2.33
2023-04-08T15:03:19.556Z,1.88
2023-04-08T15:05:46.054Z,5.38
2023-04-08T15:08:12.432Z,1.73
2023-04-08T15:10:38.872Z,3.17
2023-04-08T15:13:05.750Z,1.73
2023-04-08T15:15:34.016Z,2.22
2023-04-08T15:18:00.790Z,5.40
2023-04-08T15:20:29.673Z,1.25
2023-04-08T15:22:56.487Z,1.17
2023-04-08T15:25:23.201Z,1.52
2023-04-08T15:27:50.144Z,1.30
2023-04-08T15:30:19.393Z,1.40
2023-04-08T15:32:57.637Z,3.85
2023-04-08T15:35:24.343Z,0.98
2023-04-08T15:37:54.398Z,1.48
2023-04-08T15:40:20.829Z,1.48
2023-04-08T15:42:47.356Z,1.88
2023-04-08T15:45:13.884Z,1.75
2023-04-08T15:47:41.809Z,1.45
2023-04-08T15:50:08.475Z,2.38
2023-04-08T15:52:35.247Z,0.93
2023-04-08T15:55:02.806Z,1.80
2023-04-08T15:57:31.523Z,2.22
2023-04-08T15:59:58.078Z,1.35
2023-04-08T16:02:24.874Z,2.42
2023-04-08T16:04:51.585Z,1.52
2023-04-08T16:07:18.348Z,3.67
2023-04-08T16:09:44.739Z,4.03
2023-04-08T16:12:11.980Z,1.75
2023-04-08T16:14:38.450Z,1.48
2023-04-08T16:17:04.916Z,1.73
2023-04-08T16:19:32.392Z,1.52
2023-04-08T16:21:58.768Z,1.25
2023-04-08T16:24:25.362Z,2.03
2023-04-08T16:26:51.852Z,1.33
2023-04-08T16:29:18.397Z,3.30
2023-04-08T16:31:44.897Z,1.38
2023-04-08T16:34:11.339Z,2.42
2023-04-08T16:36:37.839Z,1.70
2023-04-08T16:39:04.318Z,2.00
2023-04-08T16:41:30.744Z,2.65
2023-04-08T16:43:57.863Z,2.88
2023-04-08T16:46:24.508Z,1.05
2023-04-08T16:48:51.055Z,1.80
2023-04-08T16:51:18.828Z,3.33
2023-04-08T16:53:45.433Z,2.88
2023-04-08T16:56:16.153Z,2.60
2023-04-08T16:58:43.066Z,1.90
2023-04-08T17:01:10.040Z,3.20
2023-04-08T17:03:37.004Z,1.60
2023-04-08T17:06:07.079Z,0.90
2023-04-08T17:08:33.562Z,2.90
2023-04-08T17:11:10.720Z,1.30
2023-04-08T17:13:41.432Z,2.38
2023-04-08T17:16:11.768Z,1.37
2023-04-08T17:18:40.366Z,1.65
2023-04-08T17:21:06.881Z,2.42
2023-04-08T17:23:33.767Z,0.93
2023-04-08T17:26:00.355Z,1.27
2023-04-08T17:28:27.151Z,1.10
2023-04-08T17:30:53.574Z,1.95
2023-04-08T17:33:19.994Z,2.00
2023-04-08T17:35:46.611Z,1.27
2023-04-08T17:38:13.281Z,1.45
2023-04-08T17:40:39.901Z,2.92
2023-04-08T17:43:06.530Z,1.23
2023-04-08T17:45:33.000Z,4.45
2023-04-08T17:47:59.575Z,1.38
2023-04-08T17:50:26.034Z,1.50
2023-04-08T17:52:52.512Z,2.00
2023-04-08T17:55:19.019Z,1.77
2023-04-08T17:57:49.749Z,3.30
2023-04-08T18:00:16.339Z,2.47
2023-04-08T18:02:43.026Z,1.75
2023-04-08T18:05:10.063Z,2.53
2023-04-08T18:07:36.659Z,3.17
2023-04-08T18:10:03.689Z,3.90
2023-04-08T18:12:30.621Z,3.30
2023-04-08T18:15:00.278Z,2.50
2023-04-08T18:17:27.133Z,2.97
2023-04-08T18:19:53.728Z,3.05
2023-04-08T18:22:23.173Z,3.22
2023-04-08T18:24:49.710Z,3.00
2023-04-08T18:27:17.110Z,3.10
2023-04-08T18:29:43.525Z,2.85
2023-04-08T18:32:10.106Z,2.75
2023-04-08T18:34:37.919Z,3.22
2023-04-08T18:37:04.591Z,2.08
2023-04-08T18:39:31.342Z,1.02
2023-04-08T18:41:57.851Z,2.25
2023-04-08T18:44:24.565Z,1.60
2023-04-08T18:46:51.346Z,1.55
2023-04-08T18:49:21.088Z,1.27
2023-04-08T18:51:59.106Z,1.75
2023-04-08T18:54:28.766Z,1.95
2023-04-08T18:56:56.614Z,2.70
2023-04-08T18:59:23.710Z,2.45
2023-04-08T19:01:50.662Z,2.25
2023-04-08T19:04:18.156Z,1.67
2023-04-08T19:06:44.833Z,3.17
2023-04-08T19:09:11.226Z,4.95
2023-04-08T19:11:37.646Z,1.73
2023-04-08T19:14:04.087Z,2.67
2023-04-08T19:16:30.597Z,1.65
2023-04-08T19:18:57.206Z,5.22
2023-04-08T19:21:23.825Z,3.88
2023-04-08T19:23:50.738Z,2.55
2023-04-08T19:26:19.884Z,3.30
2023-04-08T19:28:47.199Z,1.85
2023-04-08T19:31:17.541Z,2.95
2023-04-08T19:33:44.466Z,8.05
2023-04-08T19:36:11.430Z,4.97
2023-04-08T19:38:38.147Z,9.77
2023-04-08T19:41:04.660Z,5.25
2023-04-08T19:43:31.448Z,16.23
2023-04-08T19:45:58.214Z,2.05
2023-04-08T19:48:25.455Z,2.20
2023-04-08T19:50:56.105Z,3.60
2023-04-08T19:53:38.023Z,2.75
2023-04-08T19:56:28.260Z,4.75
2023-04-08T19:58:59.406Z,3.10
2023-04-08T20:01:26.120Z,3.10
2023-04-08T20:03:54.803Z,4.07
2023-04-08T20:06:25.902Z,7.15
2023-04-08T20:08:55.491Z,10.85
2023-04-08T20:11:22.415Z,7.13
2023-04-08T20:13:51.353Z,14.40
2023-04-08T20:16:21.237Z,7.75
2023-04-08T20:18:47.693Z,4.20
2023-04-08T20:21:14.738Z,4.00
2023-04-08T20:23:44.401Z,3.67
2023-04-08T20:26:12.317Z,3.03
2023-04-08T20:28:42.095Z,2.88
2023-04-08T20:31:09.421Z,2.92
2023-04-08T20:33:38.241Z,6.57
2023-04-08T20:36:04.957Z,3.95
2023-04-08T20:38:35.242Z,3.17
2023-04-08T20:41:02.161Z,2.75
2023-04-08T20:43:28.989Z,3.38
2023-04-08T20:45:55.403Z,3.75
2023-04-08T20:48:21.896Z,3.83
2023-04-08T20:50:48.716Z,2.63
2023-04-08T20:53:17.024Z,2.58
2023-04-08T20:55:43.598Z,3.25
2023-04-08T20:58:12.815Z,2.75
2023-04-08T21:00:41.777Z,4.70
2023-04-08T21:03:08.708Z,4.68
2023-04-08T21:08:02.376Z,4.85
2023-04-08T21:10:28.802Z,3.72
2023-04-08T21:12:58.696Z,3.75
2023-04-08T21:15:25.362Z,4.75
2023-04-08T21:17:51.949Z,3.80
2023-04-08T21:20:18.732Z,4.53
2023-04-08T21:22:45.332Z,4.75
2023-04-08T21:25:11.918Z,5.88
2023-04-08T21:27:40.663Z,4.30
2023-04-08T21:30:07.790Z,4.82
2023-04-08T21:32:41.167Z,4.18
2023-04-08T21:35:07.854Z,4.18
2023-04-08T21:37:34.689Z,4.60
2023-04-08T21:40:01.567Z,7.82
2023-04-08T21:42:28.840Z,4.53
2023-04-08T21:44:55.259Z,4.40
2023-04-08T21:47:21.764Z,4.82
2023-04-08T21:49:48.981Z,3.42
2023-04-08T21:52:15.524Z,4.40
2023-04-08T21:54:41.928Z,6.55
2023-04-08T21:57:08.325Z,5.72
2023-04-08T21:59:34.812Z,6.55
2023-04-08T22:02:02.251Z,6.95
2023-04-08T22:04:28.963Z,5.75
2023-04-08T22:06:55.546Z,5.93
2023-04-08T22:09:22.037Z,5.13
2023-04-08T22:11:48.439Z,6.30
2023-04-08T22:14:15.689Z,5.30
2023-04-08T22:16:42.148Z,9.35
2023-04-08T22:19:08.681Z,10.57
2023-04-08T22:21:35.273Z,7.40
2023-04-08T22:24:04.019Z,8.07
2023-04-08T22:26:30.529Z,9.60
2023-04-08T22:28:56.956Z,5.60
2023-04-08T22:31:23.544Z,8.05
2023-04-08T22:33:50.058Z,5.90
2023-04-08T22:36:16.900Z,6.97
2023-04-08T22:38:43.401Z,6.18
2023-04-08T22:41:17.803Z,5.53
2023-04-08T22:43:44.195Z,6.18
2023-04-08T22:46:10.876Z,7.68
2023-04-08T22:48:37.307Z,8.20
2023-04-08T22:51:04.103Z,5.18
2023-04-08T22:53:30.687Z,6.07
2023-04-08T22:55:57.663Z,5.25
2023-04-08T22:58:26.464Z,8.23
2023-04-08T23:00:52.949Z,7.95
2023-04-08T23:03:19.417Z,4.93
2023-04-08T23:05:45.891Z,5.57
2023-04-08T23:08:12.382Z,8.65
2023-04-08T23:10:38.857Z,8.45
2023-04-08T23:13:05.475Z,10.52
2023-04-08T23:15:31.958Z,8.10
2023-04-08T23:17:58.439Z,6.28
2023-04-08T23:20:24.930Z,6.20
2023-04-08T23:22:51.434Z,4.85
2023-04-08T23:25:20.086Z,7.43
2023-04-08T23:27:46.535Z,6.43
2023-04-08T23:30:12.951Z,5.55
2023-04-08T23:32:39.414Z,6.63
2023-04-08T23:35:05.951Z,7.78
2023-04-08T23:37:32.449Z,5.88
2023-04-08T23:40:01.909Z,6.88
2023-04-08T23:42:28.433Z,5.70
2023-04-08T23:44:54.963Z,8.63
2023-04-08T23:47:21.588Z,5.88
2023-04-08T23:49:48.191Z,7.63
2023-04-08T23:52:14.903Z,7.95
2023-04-08T23:54:41.292Z,8.00
2023-04-08T23:57:07.931Z,5.15
2023-04-08T23:59:36.100Z,7.78
